Time;durP1;ratioP1;P1;durP2;ratioP2;P2;SDS_P1;SDS_P2;PMS_P1;PMS_P2;Temp;Humidity;BMP_temperature;BMP_pressure;BME280_temperature;BME280_humidity;BME280_pressure;Samples;Min_cycle;Max_cycle;Signal;HPM_P1;HPM_P2
2022/05/12 00:01:42;;;;;;;;;;;;;;;;;;5085785;28;20424;-72
2022/05/12 00:04:08;;;;;;;;;;;;;;;;;;5085258;28;19987;-73
2022/05/12 00:06:35;;;;;;;;;;;;;;;;;;5085579;28;20380;-72
2022/05/12 00:09:01;;;;;;;;;;;;;;;;;;5085632;28;19932;-73
2022/05/12 00:11:26;;;;;;;;;;;;;;;;;;5085241;28;19920;-73
2022/05/12 00:13:52;;;;;;;;;;;;;;;;;;5085391;28;19927;-72
2022/05/12 00:16:18;;;;;;;;;;;;;;;;;;5085470;28;19975;-72
2022/05/12 00:18:44;;;;;;;;;;;;;;;;;;5085188;28;19920;-72
2022/05/12 00:21:10;;;;;;;;;;;;;;;;;;5085577;28;20423;-72
2022/05/12 00:23:36;;;;;;;;;;;;;;;;;;5117963;28;19921;-72
2022/05/12 00:26:02;;;;;;;;;;;;;;;;;;5085292;28;19927;-73
2022/05/12 00:28:28;;;;;;;;;;;;;;;;;;5117911;28;20422;-73
2022/05/12 00:30:54;;;;;;;;;;;;;;;;;;5085285;28;19927;-72
2022/05/12 00:33:20;;;;;;;;;;;;;;;;;;5084944;28;19967;-73
2022/05/12 00:35:46;;;;;;;;;;;;;;;;;;5085138;28;19928;-73
2022/05/12 00:38:12;;;;;;;;;;;;;;;;;;5084947;28;19931;-72
2022/05/12 00:40:38;;;;;;;;;;;;;;;;;;5117727;28;19976;-72
2022/05/12 00:43:04;;;;;;;;;;;;;;;;;;5085028;28;19983;-73
2022/05/12 00:45:30;;;;;;;;;;;;;;;;;;5085300;28;19967;-73
2022/05/12 00:47:56;;;;;;;;;;;;;;;;;;5085090;28;19980;-74
2022/05/12 00:50:22;;;;;;;;;;;;;;;;;;5117501;28;19924;-73
2022/05/12 00:52:47;;;;;;;;;;;;;;;;;;5084966;28;19995;-73
2022/05/12 00:55:13;;;;;;;;;;;;;;;;;;5084978;28;19990;-73
2022/05/12 00:57:39;;;;;;;;;;;;;;;;;;5085000;28;19927;-72
2022/05/12 01:00:06;;;;;;;;;;;;;;;;;;5084846;28;19960;-72
2022/05/12 01:02:31;;;;;;;;;;;;;;;;;;5084582;28;19924;-72
2022/05/12 01:04:57;;;;;;;;;;;;;;;;;;5085094;28;19983;-72
2022/05/12 01:07:23;;;;;;;;;;;;;;;;;;5084913;28;19965;-72
2022/05/12 01:09:49;;;;;;;;;;;;;;;;;;5117646;28;19934;-72
2022/05/12 01:12:15;;;;;;;;;;;;;;;;;;5117177;28;19927;-72
2022/05/12 01:14:41;;;;;;;;;;;;;;;;;;5084991;28;19920;-72
2022/05/12 01:17:07;;;;;;;;;;;;;;;;;;5084695;28;19983;-71
2022/05/12 01:19:34;;;;;;;;;;;;;;;;;;5100250;28;19931;-73
2022/05/12 01:21:59;;;;;;;;;;;;;;;;;;5084837;28;19942;-72
2022/05/12 01:24:25;;;;;;;;;;;;;;;;;;5117421;28;19920;-73
2022/05/12 01:26:51;;;;;;;;;;;;;;;;;;5084587;28;19920;-73
2022/05/12 01:29:18;;;;;;;;;;;;;;;;;;5117285;28;19920;-71
2022/05/12 01:31:44;;;;;;;;;;;;;;;;;;5084576;28;20406;-71
2022/05/12 01:34:10;;;;;;;;;;;;;;;;;;5084191;28;19928;-71
2022/05/12 01:36:36;;;;;;;;;;;;;;;;;;5084626;28;19930;-71
2022/05/12 01:39:02;;;;;;;;;;;;;;;;;;5084577;28;19943;-71
2022/05/12 01:41:28;;;;;;;;;;;;;;;;;;5084395;28;19920;-71
2022/05/12 01:43:54;;;;;;;;;;;;;;;;;;5084720;28;19967;-71
2022/05/12 01:46:20;;;;;;;;;;;;;;;;;;5084609;28;19924;-71
2022/05/12 01:48:46;;;;;;;;;;;;;;;;;;5084211;28;19965;-72
2022/05/12 01:51:12;;;;;;;;;;;;;;;;;;5085684;28;20386;-72
2022/05/12 01:53:38;;;;;;;;;;;;;;;;;;5087904;28;20003;-71
2022/05/12 01:56:04;;;;;;;;;;;;;;;;;;5087842;28;20380;-71
2022/05/12 01:58:30;;;;;;;;;;;;;;;;;;5087800;28;19956;-72
2022/05/12 02:00:56;;;;;;;;;;;;;;;;;;5087993;28;19928;-71
2022/05/12 02:03:22;;;;;;;;;;;;;;;;;;5087623;28;19921;-71
2022/05/12 02:05:48;;;;;;;;;;;;;;;;;;5087733;28;19942;-71
2022/05/12 02:08:14;;;;;;;;;;;;;;;;;;5120402;28;19928;-71
2022/05/12 02:10:40;;;;;;;;;;;;;;;;;;5087491;28;19974;-71
2022/05/12 02:13:07;;;;;;;;;;;;;;;;;;5087821;28;20336;-71
2022/05/12 02:15:33;;;;;;;;;;;;;;;;;;5087613;28;19943;-72
2022/05/12 02:17:59;;;;;;;;;;;;;;;;;;5087485;28;19920;-72
2022/05/12 02:20:25;;;;;;;;;;;;;;;;;;5087474;28;19920;-71
2022/05/12 02:22:51;;;;;;;;;;;;;;;;;;5087667;28;19924;-70
2022/05/12 02:25:16;;;;;;;;;;;;;;;;;;5087473;28;19943;-70
2022/05/12 02:27:45;;;;;;;;;;;;;;;;;;5074446;28;19988;-70
2022/05/12 02:30:11;;;;;;;;;;;;;;;;;;5067319;28;19925;-71
2022/05/12 02:32:37;;;;;;;;;;;;;;;;;;5066951;28;19968;-71
2022/05/12 02:35:03;;;;;;;;;;;;;;;;;;5067155;28;19967;-72
2022/05/12 02:37:29;;;;;;;;;;;;;;;;;;5067193;28;19921;-72
2022/05/12 02:39:55;;;;;;;;;;;;;;;;;;5067001;28;19963;-71
2022/05/12 02:42:22;;;;;;;;;;;;;;;;;;5067150;28;19924;-71
2022/05/12 02:44:47;;;;;;;;;;;;;;;;;;5065740;28;19932;-71
2022/05/12 02:47:14;;;;;;;;;;;;;;;;;;5066814;28;19924;-71
2022/05/12 02:49:40;;;;;;;;;;;;;;;;;;5066761;28;19947;-71
2022/05/12 02:52:07;;;;;;;;;;;;;;;;;;5066948;28;19921;-70
2022/05/12 02:54:34;;;;;;;;;;;;;;;;;;5065370;28;19920;-70
2022/05/12 02:57:00;;;;;;;;;;;;;;;;;;5066757;28;19921;-71
2022/05/12 02:59:26;;;;;;;;;;;;;;;;;;5066918;28;19921;-70
2022/05/12 03:01:52;;;;;;;;;;;;;;;;;;5066750;28;19920;-71
2022/05/12 03:04:18;;;;;;;;;;;;;;;;;;5066398;28;19921;-70
2022/05/12 03:06:44;;;;;;;;;;;;;;;;;;5066569;28;19939;-71
2022/05/12 03:09:09;;;;;;;;;;;;;;;;;;5066489;28;19927;-71
2022/05/12 03:11:35;;;;;;;;;;;;;;;;;;5066343;28;19925;-71
2022/05/12 03:14:03;;;;;;;;;;;;;;;;;;5066414;28;19987;-70
2022/05/12 03:16:29;;;;;;;;;;;;;;;;;;5066420;28;19927;-70
2022/05/12 03:18:55;;;;;;;;;;;;;;;;;;5066282;28;19920;-70
2022/05/12 03:21:21;;;;;;;;;;;;;;;;;;5066341;28;19924;-71
2022/05/12 03:23:47;;;;;;;;;;;;;;;;;;5066353;28;19976;-71
2022/05/12 03:26:13;;;;;;;;;;;;;;;;;;5066213;28;20312;-71
2022/05/12 03:28:39;;;;;;;;;;;;;;;;;;5066245;28;19921;-71
2022/05/12 03:31:05;;;;;;;;;;;;;;;;;;5065975;28;19931;-71
2022/05/12 03:33:30;;;;;;;;;;;;;;;;;;5065837;28;19924;-71
2022/05/12 03:35:56;;;;;;;;;;;;;;;;;;5064648;28;19921;-71
2022/05/12 03:38:22;;;;;;;;;;;;;;;;;;5066062;28;19920;-71
2022/05/12 03:40:48;;;;;;;;;;;;;;;;;;5066005;28;19927;-71
2022/05/12 03:45:59;;;;;;;;;;;;;;;;;;5066015;28;19955;-71
2022/05/12 03:48:25;;;;;;;;;;;;;;;;;;5065845;28;19920;-71
2022/05/12 03:50:51;;;;;;;;;;;;;;;;;;5065681;28;19935;-72
2022/05/12 03:53:17;;;;;;;;;;;;;;;;;;5065543;28;19976;-70
2022/05/12 03:55:43;;;;;;;;;;;;;;;;;;5065867;28;19921;-70
2022/05/12 03:58:09;;;;;;;;;;;;;;;;;;5065505;28;19924;-70
2022/05/12 04:00:35;;;;;;;;;;;;;;;;;;5065705;28;19980;-70
2022/05/12 04:03:01;;;;;;;;;;;;;;;;;;5065407;28;19974;-72
2022/05/12 04:05:28;;;;;;;;;;;;;;;;;;5065606;28;19920;-70
2022/05/12 04:07:54;;;;;;;;;;;;;;;;;;5065453;28;19925;-71
2022/05/12 04:10:20;;;;;;;;;;;;;;;;;;5065466;28;19947;-70
2022/05/12 04:12:46;;;;;;;;;;;;;;;;;;5065424;28;19921;-71
2022/05/12 04:15:13;;;;;;;;;;;;;;;;;;5064923;28;19925;-71
2022/05/12 04:17:39;;;;;;;;;;;;;;;;;;5065335;28;20127;-71
2022/05/12 04:20:06;;;;;;;;;;;;;;;;;;5065360;28;20209;-72
2022/05/12 04:22:33;;;;;;;;;;;;;;;;;;5065192;28;19921;-71
2022/05/12 04:24:59;;;;;;;;;;;;;;;;;;5065388;28;19951;-71
2022/05/12 04:27:25;;;;;;;;;;;;;;;;;;5065453;28;19921;-70
2022/05/12 04:29:51;;;;;;;;;;;;;;;;;;5065142;28;20392;-70
2022/05/12 04:32:17;;;;;;;;;;;;;;;;;;5065128;28;19943;-71
2022/05/12 04:37:29;;;;;;;;;;;;;;;;;;5065170;28;20012;-70
2022/05/12 04:39:55;;;;;;;;;;;;;;;;;;5097413;28;19925;-71
2022/05/12 04:42:21;;;;;;;;;;;;;;;;;;5065007;28;19921;-71
2022/05/12 04:44:47;;;;;;;;;;;;;;;;;;5064942;28;19982;-71
2022/05/12 04:47:12;;;;;;;;;;;;;;;;;;5064982;28;19921;-70
2022/05/12 04:49:38;;;;;;;;;;;;;;;;;;5063523;28;20299;-70
2022/05/12 04:52:04;;;;;;;;;;;;;;;;;;5065068;28;19921;-70
2022/05/12 04:54:30;;;;;;;;;;;;;;;;;;5064804;28;19998;-70
2022/05/12 04:56:56;;;;;;;;;;;;;;;;;;5065045;28;19928;-71
2022/05/12 04:59:22;;;;;;;;;;;;;;;;;;5064834;28;20027;-70
2022/05/12 05:01:48;;;;;;;;;;;;;;;;;;5063597;28;19920;-71
2022/05/12 05:04:14;;;;;;;;;;;;;;;;;;5064470;28;19946;-71
2022/05/12 05:06:40;;;;;;;;;;;;;;;;;;5064715;28;19953;-70
2022/05/12 05:09:06;;;;;;;;;;;;;;;;;;5064844;28;19980;-71
2022/05/12 05:11:36;;;;;;;;;;;;;;;;;;5064754;28;19960;-70
2022/05/12 05:14:02;;;;;;;;;;;;;;;;;;5064842;28;19921;-70
2022/05/12 05:16:29;;;;;;;;;;;;;;;;;;5064752;28;19928;-70
2022/05/12 05:18:55;;;;;;;;;;;;;;;;;;5064417;28;20047;-70
2022/05/12 05:21:21;;;;;;;;;;;;;;;;;;5064720;28;19925;-71
2022/05/12 05:23:47;;;;;;;;;;;;;;;;;;5064832;28;20001;-71
2022/05/12 05:26:13;;;;;;;;;;;;;;;;;;5066085;28;19920;-72
2022/05/12 05:28:39;;;;;;;;;;;;;;;;;;5068401;28;19921;-71
2022/05/12 05:31:05;;;;;;;;;;;;;;;;;;5068601;28;19921;-71
2022/05/12 05:33:31;;;;;;;;;;;;;;;;;;5068135;28;19928;-71
2022/05/12 05:35:57;;;;;;;;;;;;;;;;;;5068423;28;19921;-71
2022/05/12 05:38:23;;;;;;;;;;;;;;;;;;5068529;28;20403;-71
2022/05/12 05:40:49;;;;;;;;;;;;;;;;;;5068341;28;20165;-71
2022/05/12 05:43:15;;;;;;;;;;;;;;;;;;5067000;28;20443;-71
2022/05/12 05:45:41;;;;;;;;;;;;;;;;;;5070807;28;19928;-71
2022/05/12 05:48:07;;;;;;;;;;;;;;;;;;5085516;28;19920;-71
2022/05/12 05:53:24;;;;;;;;;;;;;;;;;;5085187;28;19927;-72
2022/05/12 05:55:50;;;;;;;;;;;;;;;;;;5087593;28;20392;-71
2022/05/12 05:58:16;;;;;;;;;;;;;;;;;;5086356;28;19942;-73
2022/05/12 06:00:43;;;;;;;;;;;;;;;;;;5086334;28;19920;-72
2022/05/12 06:03:09;;;;;;;;;;;;;;;;;;5067781;28;19930;-72
2022/05/12 06:05:35;;;;;;;;;;;;;;;;;;5070065;28;20254;-71
2022/05/12 06:08:01;;;;;;;;;;;;;;;;;;5086457;28;20192;-72
2022/05/12 06:10:28;;;;;;;;;;;;;;;;;;5087417;28;19920;-71
2022/05/12 06:12:54;;;;;;;;;;;;;;;;;;5086460;28;19928;-72
2022/05/12 06:15:20;;;;;;;;;;;;;;;;;;5087329;28;20006;-71
2022/05/12 06:17:46;;;;;;;;;;;;;;;;;;5087361;28;19925;-71
2022/05/12 06:20:12;;;;;;;;;;;;;;;;;;5087091;28;20343;-72
2022/05/12 06:22:38;;;;;;;;;;;;;;;;;;5087474;28;20389;-72
2022/05/12 06:25:05;;;;;;;;;;;;;;;;;;5086806;28;19967;-73
2022/05/12 06:27:31;;;;;;;;;;;;;;;;;;5086764;28;20104;-72
2022/05/12 06:29:57;;;;;;;;;;;;;;;;;;5086477;28;20440;-72
2022/05/12 06:32:23;;;;;;;;;;;;;;;;;;5085741;28;19924;-71
2022/05/12 06:34:49;;;;;;;;;;;;;;;;;;5085986;28;19920;-72
2022/05/12 06:37:16;;;;;;;;;;;;;;;;;;5086297;28;19928;-72
2022/05/12 06:39:42;;;;;;;;;;;;;;;;;;5087261;28;19967;-72
2022/05/12 06:42:08;;;;;;;;;;;;;;;;;;5087306;28;19974;-71
2022/05/12 06:44:34;;;;;;;;;;;;;;;;;;5085777;28;19922;-71
2022/05/12 06:47:02;;;;;;;;;;;;;;;;;;5087097;28;19928;-71
2022/05/12 06:49:28;;;;;;;;;;;;;;;;;;5086891;28;19921;-71
2022/05/12 06:51:55;;;;;;;;;;;;;;;;;;5086871;28;19939;-72
2022/05/12 06:54:22;;;;;;;;;;;;;;;;;;5086851;28;19920;-73
2022/05/12 06:56:48;;;;;;;;;;;;;;;;;;5086879;28;19920;-72
2022/05/12 06:59:15;;;;;;;;;;;;;;;;;;5086689;28;19974;-71
2022/05/12 07:01:41;;;;;;;;;;;;;;;;;;5086891;28;19928;-73
2022/05/12 07:04:07;;;;;;;;;;;;;;;;;;5086615;28;19920;-72
2022/05/12 07:06:33;;;;;;;;;;;;;;;;;;5086691;28;19946;-72
2022/05/12 07:08:59;;;;;;;;;;;;;;;;;;5086707;28;19986;-72
2022/05/12 07:11:25;;;;;;;;;;;;;;;;;;5086575;28;19951;-72
2022/05/12 07:13:51;;;;;;;;;;;;;;;;;;5086354;28;19924;-72
2022/05/12 07:16:17;;;;;;;;;;;;;;;;;;5086559;28;20268;-71
2022/05/12 07:18:42;;;;;;;;;;;;;;;;;;5086436;28;19991;-71
2022/05/12 07:26:41;;;;;;;;;;;;;;;;;;5086333;28;19928;-71
2022/05/12 07:29:07;;;;;;;;;;;;;;;;;;5084921;28;19920;-72
2022/05/12 07:31:33;;;;;;;;;;;;;;;;;;5086078;28;19988;-72
2022/05/12 07:33:59;;;;;;;;;;;;;;;;;;5085989;28;19925;-72
2022/05/12 07:36:28;;;;;;;;;;;;;;;;;;5086170;28;19951;-71
2022/05/12 07:38:55;;;;;;;;;;;;;;;;;;5086091;28;20418;-71
2022/05/12 07:41:21;;;;;;;;;;;;;;;;;;5086186;28;19921;-71
2022/05/12 07:43:47;;;;;;;;;;;;;;;;;;5085982;28;19927;-71
2022/05/12 07:46:13;;;;;;;;;;;;;;;;;;5085939;28;19978;-70
2022/05/12 07:48:39;;;;;;;;;;;;;;;;;;5085202;28;19920;-71
2022/05/12 07:51:05;;;;;;;;;;;;;;;;;;5085833;28;19921;-70
2022/05/12 07:53:30;;;;;;;;;;;;;;;;;;5085592;28;19947;-71
2022/05/12 07:55:56;;;;;;;;;;;;;;;;;;5085765;28;19920;-71
2022/05/12 07:58:23;;;;;;;;;;;;;;;;;;5085906;28;19920;-70
2022/05/12 08:00:49;;;;;;;;;;;;;;;;;;5085702;28;19921;-71
2022/05/12 08:03:14;;;;;;;;;;;;;;;;;;5085584;28;19920;-70
2022/05/12 08:05:40;;;;;;;;;;;;;;;;;;5085637;28;19920;-70
2022/05/12 08:08:06;;;;;;;;;;;;;;;;;;5085629;28;20293;-70
2022/05/12 08:10:33;;;;;;;;;;;;;;;;;;5085493;28;19920;-70
2022/05/12 08:12:59;;;;;;;;;;;;;;;;;;5084318;28;19951;-70
2022/05/12 08:15:25;;;;;;;;;;;;;;;;;;5085417;28;19927;-70
2022/05/12 08:17:51;;;;;;;;;;;;;;;;;;5085491;28;19927;-70
2022/05/12 08:20:17;;;;;;;;;;;;;;;;;;5085471;28;20432;-70
2022/05/12 08:22:43;;;;;;;;;;;;;;;;;;5084185;28;19959;-70
2022/05/12 08:25:09;;;;;;;;;;;;;;;;;;5084073;28;19920;-70
2022/05/12 08:27:35;;;;;;;;;;;;;;;;;;5085516;28;19928;-71
2022/05/12 08:30:01;;;;;;;;;;;;;;;;;;5085325;28;19926;-70
2022/05/12 08:32:27;;;;;;;;;;;;;;;;;;5083807;28;20256;-70
2022/05/12 08:34:53;;;;;;;;;;;;;;;;;;5085297;28;19927;-70
2022/05/12 08:37:20;;;;;;;;;;;;;;;;;;5085494;28;19921;-70
2022/05/12 08:39:46;;;;;;;;;;;;;;;;;;5083913;28;19920;-69
2022/05/12 08:42:12;;;;;;;;;;;;;;;;;;5085374;28;19927;-69
2022/05/12 08:44:38;;;;;;;;;;;;;;;;;;5085152;28;19920;-69
2022/05/12 08:47:05;;;;;;;;;;;;;;;;;;5085031;28;19921;-70
2022/05/12 08:49:31;;;;;;;;;;;;;;;;;;5085072;28;20200;-71
2022/05/12 08:51:57;;;;;;;;;;;;;;;;;;5085125;28;20070;-69
2022/05/12 08:54:23;;;;;;;;;;;;;;;;;;5084807;28;20081;-69
2022/05/12 08:56:50;;;;;;;;;;;;;;;;;;5085057;28;20168;-68
2022/05/12 08:59:16;;;;;;;;;;;;;;;;;;5085123;28;19926;-69
2022/05/12 09:01:42;;;;;;;;;;;;;;;;;;5089298;28;19921;-70
2022/05/12 09:04:08;;;;;;;;;;;;;;;;;;5088880;28;19927;-70
2022/05/12 09:06:34;;;;;;;;;;;;;;;;;;5087831;28;19959;-69
2022/05/12 09:09:00;;;;;;;;;;;;;;;;;;5088988;28;19920;-70
2022/05/12 09:11:26;;;;;;;;;;;;;;;;;;5088975;28;19932;-69
2022/05/12 09:13:53;;;;;;;;;;;;;;;;;;5088943;28;19956;-70
2022/05/12 09:16:19;;;;;;;;;;;;;;;;;;5089150;28;19959;-69
2022/05/12 09:18:45;;;;;;;;;;;;;;;;;;5087371;28;19951;-69
2022/05/12 09:21:11;;;;;;;;;;;;;;;;;;5088885;28;19925;-70
2022/05/12 09:23:37;;;;;;;;;;;;;;;;;;5088776;28;20051;-70
2022/05/12 09:26:03;;;;;;;;;;;;;;;;;;5088714;28;19973;-69
2022/05/12 09:28:30;;;;;;;;;;;;;;;;;;5088730;28;19928;-70
2022/05/12 09:30:56;;;;;;;;;;;;;;;;;;5088581;28;19921;-69
2022/05/12 09:33:22;;;;;;;;;;;;;;;;;;5086923;28;19920;-69
2022/05/12 09:35:48;;;;;;;;;;;;;;;;;;5088449;28;19920;-68
2022/05/12 09:38:14;;;;;;;;;;;;;;;;;;5088400;28;19920;-68
2022/05/12 09:40:40;;;;;;;;;;;;;;;;;;5088257;28;19989;-68
2022/05/12 09:43:06;;;;;;;;;;;;;;;;;;5088378;28;20011;-69
2022/05/12 09:45:32;;;;;;;;;;;;;;;;;;5088252;28;20062;-69
2022/05/12 09:47:58;;;;;;;;;;;;;;;;;;5087966;28;19920;-69
2022/05/12 09:50:25;;;;;;;;;;;;;;;;;;5088142;28;19924;-68
2022/05/12 09:52:52;;;;;;;;;;;;;;;;;;5087689;28;19927;-69
2022/05/12 09:55:18;;;;;;;;;;;;;;;;;;5088319;28;19955;-69
2022/05/12 09:57:44;;;;;;;;;;;;;;;;;;5088326;28;19931;-68
2022/05/12 10:00:10;;;;;;;;;;;;;;;;;;5088072;28;19960;-69
2022/05/12 10:08:05;;;;;;;;;;;;;;;;;;5088022;28;19974;-69
2022/05/12 10:10:31;;;;;;;;;;;;;;;;;;5087918;28;19921;-69
2022/05/12 10:12:57;;;;;;;;;;;;;;;;;;5087180;28;19927;-69
2022/05/12 10:15:23;;;;;;;;;;;;;;;;;;5087724;28;19936;-68
2022/05/12 10:17:49;;;;;;;;;;;;;;;;;;5087600;28;19921;-69
2022/05/12 10:20:18;;;;;;;;;;;;;;;;;;5087672;28;20384;-69
2022/05/12 10:22:44;;;;;;;;;;;;;;;;;;5087738;28;19927;-69
2022/05/12 10:25:10;;;;;;;;;;;;;;;;;;5087490;28;19925;-69
2022/05/12 10:27:36;;;;;;;;;;;;;;;;;;5087615;28;19924;-69
2022/05/12 10:30:02;;;;;;;;;;;;;;;;;;5087641;28;19927;-69
2022/05/12 10:32:28;;;;;;;;;;;;;;;;;;5087028;28;19924;-69
2022/05/12 10:34:54;;;;;;;;;;;;;;;;;;5087402;28;19981;-69
2022/05/12 10:37:20;;;;;;;;;;;;;;;;;;5087332;28;19982;-70
2022/05/12 10:39:47;;;;;;;;;;;;;;;;;;5087164;28;19920;-69
2022/05/12 10:42:13;;;;;;;;;;;;;;;;;;5086130;28;19924;-69
2022/05/12 10:44:39;;;;;;;;;;;;;;;;;;5087143;28;19974;-69
2022/05/12 10:47:05;;;;;;;;;;;;;;;;;;5086917;28;19927;-69
2022/05/12 10:49:31;;;;;;;;;;;;;;;;;;5085713;28;19931;-69
2022/05/12 10:51:57;;;;;;;;;;;;;;;;;;5086954;28;19983;-69
2022/05/12 10:54:24;;;;;;;;;;;;;;;;;;5086693;28;19999;-70
2022/05/12 10:56:50;;;;;;;;;;;;;;;;;;5086835;28;19950;-69
2022/05/12 10:59:16;;;;;;;;;;;;;;;;;;5086829;28;19990;-70
2022/05/12 11:01:42;;;;;;;;;;;;;;;;;;5086660;28;20395;-69
2022/05/12 11:04:08;;;;;;;;;;;;;;;;;;5086566;28;19988;-69
2022/05/12 11:06:34;;;;;;;;;;;;;;;;;;5086899;28;19928;-70
2022/05/12 11:09:00;;;;;;;;;;;;;;;;;;5086911;28;19924;-69
2022/05/12 11:11:26;;;;;;;;;;;;;;;;;;5086650;28;19928;-69
2022/05/12 11:13:52;;;;;;;;;;;;;;;;;;5086604;28;19927;-69
2022/05/12 11:16:18;;;;;;;;;;;;;;;;;;5086685;28;19927;-70
2022/05/12 11:18:44;;;;;;;;;;;;;;;;;;5086332;28;19949;-69
2022/05/12 11:21:10;;;;;;;;;;;;;;;;;;5086556;28;19979;-70
2022/05/12 11:23:36;;;;;;;;;;;;;;;;;;5083948;28;19954;-70
2022/05/12 11:26:03;;;;;;;;;;;;;;;;;;5085033;28;19920;-70
2022/05/12 11:31:14;;;;;;;;;;;;;;;;;;5086139;28;19928;-69
2022/05/12 11:33:40;;;;;;;;;;;;;;;;;;5086210;28;19924;-69
2022/05/12 11:36:06;;;;;;;;;;;;;;;;;;5086237;28;19974;-69
2022/05/12 11:38:32;;;;;;;;;;;;;;;;;;5086208;28;19943;-69
2022/05/12 11:40:58;;;;;;;;;;;;;;;;;;5086111;28;20251;-70
2022/05/12 11:46:10;;;;;;;;;;;;;;;;;;5086003;28;19920;-69
2022/05/12 11:48:36;;;;;;;;;;;;;;;;;;5085983;28;19920;-69
2022/05/12 11:51:02;;;;;;;;;;;;;;;;;;5084406;28;20014;-69
2022/05/12 11:53:28;;;;;;;;;;;;;;;;;;5085669;28;19920;-69
2022/05/12 11:55:54;;;;;;;;;;;;;;;;;;5085974;28;19920;-68
2022/05/12 11:58:20;;;;;;;;;;;;;;;;;;5084275;28;19928;-69
2022/05/12 12:00:46;;;;;;;;;;;;;;;;;;5085683;28;19920;-69
2022/05/12 12:03:12;;;;;;;;;;;;;;;;;;5085522;28;19920;-68
2022/05/12 12:05:38;;;;;;;;;;;;;;;;;;5085600;28;20387;-68
2022/05/12 12:08:04;;;;;;;;;;;;;;;;;;5085766;28;19946;-68
2022/05/12 12:10:30;;;;;;;;;;;;;;;;;;5085712;28;19951;-68
2022/05/12 12:12:56;;;;;;;;;;;;;;;;;;5085256;28;19921;-69
2022/05/12 12:15:22;;;;;;;;;;;;;;;;;;5085475;28;19920;-69
2022/05/12 12:17:49;;;;;;;;;;;;;;;;;;5085411;28;19943;-68
2022/05/12 12:20:15;;;;;;;;;;;;;;;;;;5085542;28;19952;-69
2022/05/12 12:22:41;;;;;;;;;;;;;;;;;;5085363;28;19942;-69
2022/05/12 12:25:07;;;;;;;;;;;;;;;;;;5085369;28;19920;-69
2022/05/12 12:27:33;;;;;;;;;;;;;;;;;;5085289;28;19963;-70
2022/05/12 12:29:59;;;;;;;;;;;;;;;;;;5085486;28;19987;-69
2022/05/12 12:32:25;;;;;;;;;;;;;;;;;;5085031;28;19924;-69
2022/05/12 12:34:52;;;;;;;;;;;;;;;;;;5084571;28;19920;-70
2022/05/12 12:37:18;;;;;;;;;;;;;;;;;;5085304;28;19920;-69
2022/05/12 12:39:44;;;;;;;;;;;;;;;;;;5085223;28;19966;-69
2022/05/12 12:42:10;;;;;;;;;;;;;;;;;;5085103;28;19932;-69
2022/05/12 12:44:36;;;;;;;;;;;;;;;;;;5085115;28;19924;-70
2022/05/12 12:47:02;;;;;;;;;;;;;;;;;;5085081;28;19971;-68
2022/05/12 12:49:29;;;;;;;;;;;;;;;;;;5084770;28;19920;-69
2022/05/12 12:51:57;;;;;;;;;;;;;;;;;;5084949;28;19924;-69
2022/05/12 12:57:07;;;;;;;;;;;;;;;;;;5084929;28;19920;-70
2022/05/12 12:59:35;;;;;;;;;;;;;;;;;;5085069;28;19921;-70
2022/05/12 13:02:01;;;;;;;;;;;;;;;;;;5084871;28;19932;-69
2022/05/12 13:04:27;;;;;;;;;;;;;;;;;;5084487;28;19927;-69
2022/05/12 13:06:53;;;;;;;;;;;;;;;;;;5084860;28;19984;-70
2022/05/12 13:09:19;;;;;;;;;;;;;;;;;;5084787;28;20008;-69
2022/05/12 13:11:45;;;;;;;;;;;;;;;;;;5084782;28;19921;-69
2022/05/12 13:14:11;;;;;;;;;;;;;;;;;;5084939;28;19927;-69
2022/05/12 13:16:38;;;;;;;;;;;;;;;;;;5083462;28;20299;-70
2022/05/12 13:19:04;;;;;;;;;;;;;;;;;;5084449;28;19921;-70
2022/05/12 13:21:32;;;;;;;;;;;;;;;;;;5084626;28;19925;-70
2022/05/12 13:23:58;;;;;;;;;;;;;;;;;;5084706;28;20007;-69
2022/05/12 13:26:24;;;;;;;;;;;;;;;;;;5083561;28;19924;-69
2022/05/12 13:28:50;;;;;;;;;;;;;;;;;;5084828;28;19925;-69
2022/05/12 13:31:16;;;;;;;;;;;;;;;;;;5084678;28;19927;-69
2022/05/12 13:33:42;;;;;;;;;;;;;;;;;;5084460;28;19920;-70
2022/05/12 13:36:08;;;;;;;;;;;;;;;;;;5084592;28;20330;-70
2022/05/12 13:38:39;;;;;;;;;;;;;;;;;;5084752;28;19920;-69
2022/05/12 13:41:05;;;;;;;;;;;;;;;;;;5084554;28;20380;-69
2022/05/12 13:43:31;;;;;;;;;;;;;;;;;;5083291;28;19955;-70
2022/05/12 13:45:57;;;;;;;;;;;;;;;;;;5084658;28;19920;-71
2022/05/12 13:48:23;;;;;;;;;;;;;;;;;;5087701;28;19920;-70
2022/05/12 13:50:49;;;;;;;;;;;;;;;;;;5088145;28;19920;-70
2022/05/12 13:53:15;;;;;;;;;;;;;;;;;;5087947;28;19921;-70
2022/05/12 13:55:41;;;;;;;;;;;;;;;;;;5088213;28;19920;-70
2022/05/12 13:58:09;;;;;;;;;;;;;;;;;;5088234;28;19920;-70
2022/05/12 14:00:35;;;;;;;;;;;;;;;;;;5087973;28;19920;-70
2022/05/12 14:03:01;;;;;;;;;;;;;;;;;;5087786;28;19985;-70
2022/05/12 14:05:28;;;;;;;;;;;;;;;;;;5087961;28;20407;-70
2022/05/12 14:07:54;;;;;;;;;;;;;;;;;;5087877;28;19924;-71
2022/05/12 14:10:20;;;;;;;;;;;;;;;;;;5087991;28;20430;-70
2022/05/12 14:21:00;;;;;;;;;;;;;;;;;;5087760;28;19950;-69
2022/05/12 14:23:26;;;;;;;;;;;;;;;;;;5087539;28;19994;-69
2022/05/12 14:25:52;;;;;;;;;;;;;;;;;;5087388;28;19921;-70
2022/05/12 14:28:17;;;;;;;;;;;;;;;;;;5087638;28;19920;-70
2022/05/12 14:30:44;;;;;;;;;;;;;;;;;;5087305;28;19920;-70
2022/05/12 14:33:11;;;;;;;;;;;;;;;;;;5087169;28;19924;-70
2022/05/12 14:35:37;;;;;;;;;;;;;;;;;;5087314;28;19941;-70
2022/05/12 14:38:03;;;;;;;;;;;;;;;;;;5087403;28;20006;-70
2022/05/12 14:40:29;;;;;;;;;;;;;;;;;;5087422;28;19920;-70
2022/05/12 14:42:55;;;;;;;;;;;;;;;;;;5087282;28;19978;-70
2022/05/12 14:45:21;;;;;;;;;;;;;;;;;;5087115;28;20280;-70
2022/05/12 14:47:47;;;;;;;;;;;;;;;;;;5086999;28;19978;-69
2022/05/12 14:50:13;;;;;;;;;;;;;;;;;;5087307;28;19921;-71
2022/05/12 14:52:39;;;;;;;;;;;;;;;;;;5086924;28;19926;-70
2022/05/12 14:55:05;;;;;;;;;;;;;;;;;;5086968;28;19960;-70
2022/05/12 14:57:31;;;;;;;;;;;;;;;;;;5086589;28;19921;-70
2022/05/12 14:59:57;;;;;;;;;;;;;;;;;;5086892;28;19927;-70
2022/05/12 15:02:23;;;;;;;;;;;;;;;;;;5086763;28;19967;-70
2022/05/12 15:04:49;;;;;;;;;;;;;;;;;;5086502;28;19928;-70
2022/05/12 15:07:15;;;;;;;;;;;;;;;;;;5086741;28;19920;-70
2022/05/12 15:09:41;;;;;;;;;;;;;;;;;;5086814;28;19924;-70
2022/05/12 15:12:07;;;;;;;;;;;;;;;;;;5086699;28;19921;-71
2022/05/12 15:14:34;;;;;;;;;;;;;;;;;;5086715;28;19978;-71
2022/05/12 15:17:00;;;;;;;;;;;;;;;;;;5086433;28;20438;-70
2022/05/12 15:19:26;;;;;;;;;;;;;;;;;;5086443;28;19921;-70
2022/05/12 15:21:53;;;;;;;;;;;;;;;;;;5086548;28;19924;-70
2022/05/12 15:24:19;;;;;;;;;;;;;;;;;;5086510;28;19974;-70
2022/05/12 15:26:45;;;;;;;;;;;;;;;;;;5086273;28;19920;-71
2022/05/12 15:29:11;;;;;;;;;;;;;;;;;;5085007;28;19932;-71
2022/05/12 15:31:37;;;;;;;;;;;;;;;;;;5086276;28;19920;-71
2022/05/12 15:34:03;;;;;;;;;;;;;;;;;;5086013;28;19927;-70
2022/05/12 15:36:29;;;;;;;;;;;;;;;;;;5085209;28;19924;-71
2022/05/12 15:38:55;;;;;;;;;;;;;;;;;;5085351;28;19921;-71
2022/05/12 15:41:21;;;;;;;;;;;;;;;;;;5084391;28;20349;-71
2022/05/12 15:43:47;;;;;;;;;;;;;;;;;;5085722;28;19927;-71
2022/05/12 15:46:13;;;;;;;;;;;;;;;;;;5075387;28;19920;-72
2022/05/12 15:48:39;;;;;;;;;;;;;;;;;;5073686;28;19921;-72
2022/05/12 15:51:05;;;;;;;;;;;;;;;;;;5081870;28;19928;-72
2022/05/12 15:53:31;;;;;;;;;;;;;;;;;;5083585;28;19947;-71
2022/05/12 15:55:57;;;;;;;;;;;;;;;;;;5065202;28;20292;-71
2022/05/12 15:58:23;;;;;;;;;;;;;;;;;;5075612;28;19921;-71
2022/05/12 16:00:49;;;;;;;;;;;;;;;;;;5085249;28;19920;-71
2022/05/12 16:03:16;;;;;;;;;;;;;;;;;;5083563;28;19956;-71
2022/05/12 16:05:43;;;;;;;;;;;;;;;;;;5116901;28;19920;-71
2022/05/12 16:08:09;;;;;;;;;;;;;;;;;;5084887;28;19924;-70
2022/05/12 16:10:35;;;;;;;;;;;;;;;;;;5084788;28;19927;-71
2022/05/12 16:13:01;;;;;;;;;;;;;;;;;;5084847;28;19920;-71
2022/05/12 16:15:30;;;;;;;;;;;;;;;;;;5085171;28;19920;-71
2022/05/12 16:17:56;;;;;;;;;;;;;;;;;;5085355;28;19959;-70
2022/05/12 16:20:22;;;;;;;;;;;;;;;;;;5085237;28;19921;-70
2022/05/12 16:22:53;;;;;;;;;;;;;;;;;;5083307;28;19936;-71
2022/05/12 16:25:22;;;;;;;;;;;;;;;;;;5082322;28;19920;-70
2022/05/12 16:27:48;;;;;;;;;;;;;;;;;;5085254;28;19921;-70
2022/05/12 16:30:14;;;;;;;;;;;;;;;;;;5085176;28;19924;-70
2022/05/12 16:32:41;;;;;;;;;;;;;;;;;;5085109;28;19921;-70
2022/05/12 16:35:07;;;;;;;;;;;;;;;;;;5083646;28;19920;-70
2022/05/12 16:37:34;;;;;;;;;;;;;;;;;;5083540;28;19928;-71
2022/05/12 16:40:00;;;;;;;;;;;;;;;;;;5078557;28;19928;-70
2022/05/12 16:42:26;;;;;;;;;;;;;;;;;;5086087;28;19960;-72
2022/05/12 16:44:52;;;;;;;;;;;;;;;;;;5087373;28;19931;-72
2022/05/12 16:47:18;;;;;;;;;;;;;;;;;;5093511;28;20375;-71
2022/05/12 16:49:44;;;;;;;;;;;;;;;;;;5090542;28;19920;-72
2022/05/12 16:52:12;;;;;;;;;;;;;;;;;;5086166;28;19928;-70
2022/05/12 16:54:38;;;;;;;;;;;;;;;;;;5086142;28;19987;-71
2022/05/12 16:57:05;;;;;;;;;;;;;;;;;;5089961;28;19926;-71
2022/05/12 16:59:31;;;;;;;;;;;;;;;;;;5114372;28;19920;-70
2022/05/12 17:01:57;;;;;;;;;;;;;;;;;;5111126;28;19920;-70
2022/05/12 17:04:23;;;;;;;;;;;;;;;;;;5085386;28;19920;-70
2022/05/12 17:06:49;;;;;;;;;;;;;;;;;;5084468;28;19963;-71
2022/05/12 17:09:15;;;;;;;;;;;;;;;;;;5073939;28;19921;-72
2022/05/12 17:11:41;;;;;;;;;;;;;;;;;;5081853;28;19924;-71
2022/05/12 17:14:07;;;;;;;;;;;;;;;;;;5081252;28;19920;-72